Time;durP1;ratioP1;P1;durP2;ratioP2;P2;SDS_P1;SDS_P2;PMS_P1;PMS_P2;Temp;Humidity;BMP_temperature;BMP_pressure;BME280_temperature;BME280_humidity;BME280_pressure;Samples;Min_cycle;Max_cycle;Signal;HPM_P1;HPM_P2
2023/05/14 00:01:58;;;;;;;12.52;3.22;;;10.80;99.90;;;;;;5091404;28;20088;-68
2023/05/14 00:04:24;;;;;;;5.35;2.47;;;10.80;99.90;;;;;;5090523;28;20076;-68
2023/05/14 00:06:50;;;;;;;4.90;2.55;;;10.80;99.90;;;;;;5091097;28;20040;-68
2023/05/14 00:09:16;;;;;;;5.00;2.13;;;10.80;99.90;;;;;;5092429;28;20047;-69
2023/05/14 00:11:42;;;;;;;5.25;2.38;;;10.80;99.90;;;;;;5090514;28;20036;-68
2023/05/14 00:14:08;;;;;;;3.97;2.20;;;10.80;99.90;;;;;;5091379;28;20040;-68
2023/05/14 00:16:34;;;;;;;4.97;2.30;;;10.80;99.90;;;;;;5091287;28;20099;-68
2023/05/14 00:18:59;;;;;;;4.95;1.95;;;10.80;99.90;;;;;;5090185;28;20492;-67
2023/05/14 00:21:25;;;;;;;5.60;2.25;;;10.70;99.90;;;;;;5074486;28;20051;-68
2023/05/14 00:23:51;;;;;;;6.60;2.28;;;10.70;99.90;;;;;;5091049;28;20548;-68
2023/05/14 00:26:17;;;;;;;9.95;2.35;;;10.70;99.90;;;;;;5091717;28;20080;-68
2023/05/14 00:28:43;;;;;;;4.75;2.53;;;10.70;99.90;;;;;;5092053;28;20377;-70
2023/05/14 00:31:08;;;;;;;4.47;2.10;;;10.60;99.90;;;;;;5090573;28;20051;-68
2023/05/14 00:33:35;;;;;;;3.85;1.92;;;10.50;99.90;;;;;;5091067;28;20044;-68
2023/05/14 00:36:00;;;;;;;4.80;2.42;;;10.50;99.90;;;;;;5090666;28;20044;-67
2023/05/14 00:38:27;;;;;;;3.80;2.03;;;10.50;99.90;;;;;;5090530;28;20093;-68
2023/05/14 00:40:53;;;;;;;4.75;2.10;;;10.50;99.90;;;;;;5089926;28;20044;-67
2023/05/14 00:43:20;;;;;;;6.07;3.30;;;10.50;99.90;;;;;;5091851;28;20043;-68
2023/05/14 00:45:52;;;;;;;6.63;3.22;;;10.50;99.90;;;;;;5073102;28;20068;-68
2023/05/14 00:48:19;;;;;;;7.22;2.70;;;10.40;99.90;;;;;;5095922;28;20500;-68
2023/05/14 00:50:45;;;;;;;5.15;2.42;;;10.40;99.90;;;;;;5094024;28;20039;-68
2023/05/14 00:53:11;;;;;;;3.10;1.50;;;10.40;99.90;;;;;;5111139;28;20040;-69
2023/05/14 00:55:37;;;;;;;4.25;2.10;;;10.40;99.90;;;;;;5111779;28;20096;-68
2023/05/14 00:58:09;;;;;;;5.07;2.03;;;10.30;99.90;;;;;;5093730;28;20404;-68
2023/05/14 01:00:36;;;;;;;3.60;1.75;;;10.30;99.90;;;;;;5092830;28;20051;-68
2023/05/14 01:03:06;;;;;;;4.68;2.58;;;10.20;99.90;;;;;;5093334;28;20077;-68
2023/05/14 01:06:02;;;;;;;4.63;1.55;;;10.20;99.90;;;;;;5093327;28;20103;-68
2023/05/14 01:09:03;;;;;;;7.70;2.28;;;10.20;99.90;;;;;;5092913;28;20039;-68
2023/05/14 01:11:35;;;;;;;2.75;1.88;;;10.20;99.90;;;;;;5089066;28;20623;-68
2023/05/14 01:14:20;;;;;;;5.15;2.40;;;10.20;99.90;;;;;;5075610;28;20044;-68
2023/05/14 01:16:49;;;;;;;2.97;1.75;;;10.10;99.90;;;;;;5093326;28;20499;-68
2023/05/14 01:19:42;;;;;;;3.38;1.90;;;10.10;99.90;;;;;;5111659;28;20042;-68
2023/05/14 01:22:09;;;;;;;5.57;2.08;;;10.00;99.90;;;;;;5089428;28;20058;-68
2023/05/14 01:24:35;;;;;;;4.82;2.05;;;10.00;99.90;;;;;;5089388;28;20390;-68
2023/05/14 01:27:32;;;;;;;3.55;1.83;;;10.00;99.90;;;;;;5090621;28;20043;-69
2023/05/14 01:30:01;;;;;;;4.00;1.98;;;10.00;99.90;;;;;;5090891;28;20111;-69
2023/05/14 01:32:28;;;;;;;4.03;2.13;;;10.00;99.90;;;;;;5072825;28;20041;-69
2023/05/14 01:34:55;;;;;;;4.95;2.38;;;10.00;99.90;;;;;;5089963;28;20085;-68
2023/05/14 01:37:22;;;;;;;3.67;2.17;;;9.90;99.90;;;;;;5072713;28;20040;-68
2023/05/14 01:39:49;;;;;;;2.33;1.33;;;9.90;99.90;;;;;;5090813;28;20394;-68
2023/05/14 01:42:15;;;;;;;3.92;1.67;;;9.90;99.90;;;;;;5090190;28;20051;-69
2023/05/14 01:44:41;;;;;;;3.60;1.90;;;9.90;99.90;;;;;;5072553;28;20056;-68
2023/05/14 01:47:07;;;;;;;5.15;2.45;;;9.90;99.90;;;;;;5072512;28;20466;-68
2023/05/14 01:49:33;;;;;;;3.72;2.00;;;9.90;99.90;;;;;;5071528;28;20056;-68
2023/05/14 01:51:59;;;;;;;6.65;2.45;;;9.90;99.90;;;;;;5072061;28;20051;-69
2023/05/14 01:54:25;;;;;;;3.38;1.77;;;9.90;99.90;;;;;;5072395;28;20040;-69
2023/05/14 01:56:50;;;;;;;3.08;1.67;;;9.80;99.90;;;;;;5089556;28;20397;-69
2023/05/14 01:59:16;;;;;;;4.22;1.88;;;9.80;99.90;;;;;;5072055;28;20044;-69
2023/05/14 02:01:42;;;;;;;3.08;1.80;;;9.70;99.90;;;;;;5090445;28;20040;-69
2023/05/14 02:04:08;;;;;;;2.75;1.88;;;9.60;99.90;;;;;;5071897;28;20082;-69
2023/05/14 02:06:33;;;;;;;5.10;2.20;;;9.60;99.90;;;;;;5072110;28;20036;-68
2023/05/14 02:08:59;;;;;;;4.68;2.28;;;9.50;99.90;;;;;;5090257;28;20040;-69
2023/05/14 02:11:25;;;;;;;4.43;1.77;;;9.40;99.90;;;;;;5089642;28;20036;-69
2023/05/14 02:13:51;;;;;;;3.67;2.05;;;9.40;99.90;;;;;;5090294;28;20039;-69
2023/05/14 02:16:18;;;;;;;2.78;2.00;;;9.40;99.90;;;;;;5090201;28;20115;-68
2023/05/14 02:18:43;;;;;;;4.95;2.15;;;9.40;99.90;;;;;;5071275;28;20650;-69
2023/05/14 02:21:09;;;;;;;4.85;2.55;;;9.40;99.90;;;;;;5071801;28;20040;-69
2023/05/14 02:23:35;;;;;;;4.15;1.95;;;9.40;99.90;;;;;;5071294;28;20032;-68
2023/05/14 02:26:01;;;;;;;6.22;2.47;;;9.40;99.90;;;;;;5072035;28;20036;-69
2023/05/14 02:28:27;;;;;;;8.18;1.95;;;9.40;99.90;;;;;;5090028;28;20136;-69
2023/05/14 02:30:58;;;;;;;5.03;1.83;;;9.40;99.90;;;;;;5089128;28;20040;-68
2023/05/14 02:33:24;;;;;;;3.83;1.92;;;9.40;99.90;;;;;;5087270;28;20115;-69
2023/05/14 02:35:50;;;;;;;8.18;2.33;;;9.40;99.90;;;;;;5110064;28;20110;-68
2023/05/14 02:38:16;;;;;;;4.32;2.10;;;9.40;99.90;;;;;;5074546;28;20039;-68
2023/05/14 02:40:41;;;;;;;3.95;2.38;;;9.40;99.90;;;;;;5075158;28;20035;-69
2023/05/14 02:43:07;;;;;;;4.20;2.08;;;9.40;99.90;;;;;;5075165;28;20040;-69
2023/05/14 02:45:33;;;;;;;3.72;1.95;;;9.40;99.90;;;;;;5091205;28;20043;-69
2023/05/14 02:47:59;;;;;;;3.25;1.55;;;9.40;99.90;;;;;;5093704;28;20044;-69
2023/05/14 02:50:25;;;;;;;4.18;1.98;;;9.40;99.90;;;;;;5096170;28;20040;-69
2023/05/14 02:52:50;;;;;;;4.35;2.03;;;9.40;99.90;;;;;;5095209;28;20044;-69
2023/05/14 02:55:16;;;;;;;3.88;2.45;;;9.40;99.90;;;;;;5095742;28;20043;-69
2023/05/14 02:57:42;;;;;;;5.35;2.50;;;9.30;99.90;;;;;;5114170;28;20036;-69
2023/05/14 03:00:08;;;;;;;4.38;1.85;;;9.30;99.90;;;;;;5095472;28;20028;-69
2023/05/14 03:02:34;;;;;;;5.32;2.40;;;9.30;99.90;;;;;;5096229;28;20396;-69
2023/05/14 03:05:00;;;;;;;5.13;2.88;;;9.30;99.90;;;;;;5078775;28;20043;-69
2023/05/14 03:07:26;;;;;;;3.83;2.08;;;9.30;99.90;;;;;;5078280;28;20039;-69
2023/05/14 03:09:52;;;;;;;3.53;1.92;;;9.30;99.90;;;;;;5114288;28;20561;-69
2023/05/14 03:12:18;;;;;;;3.78;2.05;;;9.30;99.90;;;;;;5114169;28;20127;-69
2023/05/14 03:14:44;;;;;;;4.82;2.33;;;9.30;99.90;;;;;;5094859;28;20043;-68
2023/05/14 03:17:10;;;;;;;4.72;2.15;;;9.30;99.90;;;;;;5095435;28;20130;-68
2023/05/14 03:19:35;;;;;;;3.55;1.55;;;9.30;99.90;;;;;;5095156;28;20036;-68
2023/05/14 03:22:01;;;;;;;5.20;2.67;;;9.30;99.90;;;;;;5095300;28;20047;-68
2023/05/14 03:24:27;;;;;;;5.22;2.53;;;9.30;99.90;;;;;;5095259;28;20085;-69
2023/05/14 03:26:53;;;;;;;3.38;1.77;;;9.30;99.90;;;;;;5113154;28;20096;-68
2023/05/14 03:29:19;;;;;;;4.85;1.67;;;9.30;99.90;;;;;;5113571;28;20040;-68
2023/05/14 03:31:44;;;;;;;3.92;1.67;;;9.20;99.90;;;;;;5113691;28;20369;-69
2023/05/14 03:34:10;;;;;;;3.47;1.90;;;9.20;99.90;;;;;;5078065;28;20050;-68
2023/05/14 03:36:38;;;;;;;3.90;1.77;;;9.10;99.90;;;;;;5095095;28;20606;-68
2023/05/14 03:39:08;;;;;;;5.25;2.47;;;9.10;99.90;;;;;;5078263;28;20047;-68
2023/05/14 03:41:35;;;;;;;4.25;1.77;;;9.10;99.90;;;;;;5094811;28;20433;-68
2023/05/14 03:44:00;;;;;;;4.22;1.95;;;9.10;99.90;;;;;;5113556;28;20070;-68
2023/05/14 03:46:26;;;;;;;3.83;1.60;;;9.10;99.90;;;;;;5095218;28;20476;-68
2023/05/14 03:48:52;;;;;;;4.93;1.90;;;9.10;99.90;;;;;;5094340;28;20430;-68
2023/05/14 03:51:18;;;;;;;4.47;2.15;;;9.10;99.90;;;;;;5094782;28;20062;-68
2023/05/14 03:53:44;;;;;;;5.85;1.92;;;9.10;99.90;;;;;;5094831;28;20105;-68
2023/05/14 03:56:10;;;;;;;4.75;2.10;;;9.10;99.90;;;;;;5112572;28;20084;-68
2023/05/14 03:58:35;;;;;;;4.00;1.88;;;9.10;99.90;;;;;;5094767;28;20032;-68
2023/05/14 04:01:01;;;;;;;3.05;1.70;;;9.10;99.90;;;;;;5094676;28;20605;-69
2023/05/14 04:03:27;;;;;;;5.43;2.63;;;9.20;99.90;;;;;;5094148;28;20042;-68
2023/05/14 04:05:53;;;;;;;8.07;2.25;;;9.20;99.90;;;;;;5094881;28;20073;-68
2023/05/14 04:08:18;;;;;;;3.83;1.50;;;9.20;99.90;;;;;;5094409;28;20476;-69
2023/05/14 04:10:45;;;;;;;3.17;1.35;;;9.30;99.90;;;;;;5093831;28;20046;-68
2023/05/14 04:13:10;;;;;;;2.75;1.75;;;9.30;99.90;;;;;;5094821;28;20441;-68
2023/05/14 04:15:38;;;;;;;6.63;2.50;;;9.30;99.90;;;;;;5077196;28;20040;-68
2023/05/14 04:18:04;;;;;;;4.40;1.80;;;9.30;99.90;;;;;;5094493;28;20104;-68
2023/05/14 04:20:30;;;;;;;3.03;1.75;;;9.30;99.90;;;;;;5094443;28;20039;-68
2023/05/14 04:22:55;;;;;;;3.53;1.77;;;9.40;99.90;;;;;;5093622;28;20040;-68
2023/05/14 04:25:22;;;;;;;2.08;1.25;;;9.40;99.90;;;;;;5094101;28;20091;-68
2023/05/14 04:27:48;;;;;;;5.43;2.35;;;9.40;99.90;;;;;;5112565;28;20116;-68
2023/05/14 04:30:14;;;;;;;4.53;2.03;;;9.40;99.90;;;;;;5111928;28;20182;-68
2023/05/14 04:32:40;;;;;;;6.22;2.28;;;9.40;99.90;;;;;;5112487;28;20047;-68
2023/05/14 04:35:08;;;;;;;4.28;2.25;;;9.50;99.90;;;;;;5112747;28;20032;-68
2023/05/14 04:37:33;;;;;;;5.28;2.45;;;9.50;99.90;;;;;;5076665;28;20043;-68
2023/05/14 04:39:59;;;;;;;5.00;2.03;;;9.50;99.90;;;;;;5112300;28;20480;-68
2023/05/14 04:42:25;;;;;;;3.40;1.92;;;9.60;99.90;;;;;;5093939;28;20048;-68
2023/05/14 04:44:51;;;;;;;4.38;1.88;;;9.70;99.90;;;;;;5093656;28;20112;-68
2023/05/14 04:47:17;;;;;;;5.22;2.47;;;9.80;99.90;;;;;;5093975;28;20442;-68
2023/05/14 04:49:43;;;;;;;2.50;1.65;;;9.90;99.90;;;;;;5093719;28;20055;-68
2023/05/14 04:52:08;;;;;;;3.65;1.73;;;10.00;99.90;;;;;;5111351;28;20066;-69
2023/05/14 04:54:34;;;;;;;3.17;1.67;;;10.10;99.90;;;;;;5112072;28;20483;-68
2023/05/14 04:57:02;;;;;;;2.90;1.65;;;10.20;99.90;;;;;;5093711;28;20043;-68
2023/05/14 04:59:30;;;;;;;4.47;1.77;;;10.30;99.90;;;;;;5111182;28;20491;-68
2023/05/14 05:01:56;;;;;;;3.50;1.60;;;10.50;99.90;;;;;;5093520;28;20051;-69
2023/05/14 05:04:23;;;;;;;4.55;1.80;;;10.60;99.90;;;;;;5093509;28;20043;-68
2023/05/14 05:06:52;;;;;;;5.18;2.58;;;10.60;99.90;;;;;;5093049;28;20039;-68
2023/05/14 05:09:17;;;;;;;4.80;1.77;;;10.70;99.90;;;;;;5111306;28;20040;-68
2023/05/14 05:11:43;;;;;;;4.65;2.10;;;10.80;99.90;;;;;;5092406;28;20123;-68
2023/05/14 05:14:09;;;;;;;5.47;2.15;;;10.90;99.90;;;;;;5111897;28;20525;-69
2023/05/14 05:16:35;;;;;;;3.22;1.77;;;10.90;99.90;;;;;;5076436;28;20035;-69
2023/05/14 05:19:01;;;;;;;7.32;2.33;;;11.00;99.90;;;;;;5092473;28;20084;-69
2023/05/14 05:21:27;;;;;;;3.35;1.85;;;11.10;99.90;;;;;;5076211;28;20039;-68
2023/05/14 05:23:52;;;;;;;4.80;1.98;;;11.10;99.90;;;;;;5111284;28;20149;-68
2023/05/14 05:26:18;;;;;;;2.55;1.60;;;11.20;99.90;;;;;;5092232;28;20036;-68
2023/05/14 05:28:44;;;;;;;4.63;1.80;;;11.30;99.90;;;;;;5111383;28;20081;-69
2023/05/14 05:31:10;;;;;;;5.03;1.95;;;11.40;99.90;;;;;;5092740;28;20404;-69
2023/05/14 05:33:35;;;;;;;3.28;1.90;;;11.50;99.90;;;;;;5110323;28;20035;-69
2023/05/14 05:36:01;;;;;;;7.60;1.90;;;11.60;99.90;;;;;;5093019;28;20035;-69
2023/05/14 05:38:27;;;;;;;3.53;1.98;;;11.60;99.90;;;;;;5092568;28;20483;-69
2023/05/14 05:40:53;;;;;;;4.05;1.77;;;11.70;99.90;;;;;;5075130;28;20038;-69
2023/05/14 05:43:19;;;;;;;2.60;1.73;;;11.70;99.90;;;;;;5092892;28;20114;-70
2023/05/14 05:45:45;;;;;;;2.63;1.58;;;11.80;99.90;;;;;;5093052;28;20459;-69
2023/05/14 05:48:11;;;;;;;6.22;2.17;;;11.90;99.90;;;;;;5091857;28;20669;-69
2023/05/14 05:50:36;;;;;;;4.15;2.03;;;12.00;99.90;;;;;;5092691;28;20043;-70
2023/05/14 05:53:02;;;;;;;2.47;1.75;;;12.20;99.90;;;;;;5075607;28;20044;-69
2023/05/14 05:55:29;;;;;;;3.05;1.40;;;12.30;99.90;;;;;;5109993;28;20035;-69
2023/05/14 05:57:55;;;;;;;4.10;2.00;;;12.40;99.90;;;;;;5110726;28;20126;-69
2023/05/14 06:00:21;;;;;;;3.08;1.67;;;12.50;99.90;;;;;;5075674;28;20446;-69
2023/05/14 06:02:48;;;;;;;4.95;1.85;;;12.60;99.90;;;;;;5091973;28;20043;-69
2023/05/14 06:05:14;;;;;;;3.40;2.08;;;12.70;99.90;;;;;;5075607;28;20483;-69
2023/05/14 06:07:39;;;;;;;7.15;2.20;;;12.80;99.90;;;;;;5109976;28;20050;-69
2023/05/14 06:10:06;;;;;;;4.97;2.92;;;12.80;99.90;;;;;;5075469;28;20046;-68
2023/05/14 06:12:32;;;;;;;4.60;1.90;;;12.90;99.90;;;;;;5110549;28;20039;-69
2023/05/14 06:14:57;;;;;;;3.88;1.80;;;13.20;99.90;;;;;;5091804;28;20651;-69
2023/05/14 06:17:24;;;;;;;7.05;1.60;;;13.20;99.90;;;;;;5092449;28;20046;-69
2023/05/14 06:19:51;;;;;;;4.13;1.83;;;13.20;99.90;;;;;;5092215;28;20096;-69
2023/05/14 06:22:17;;;;;;;3.58;2.35;;;13.30;99.90;;;;;;5108829;28;20048;-69
2023/05/14 06:24:42;;;;;;;4.05;1.40;;;13.40;99.90;;;;;;5110513;28;20042;-69
2023/05/14 06:27:10;;;;;;;2.60;1.35;;;13.50;99.90;;;;;;5090762;28;20046;-69
2023/05/14 06:29:36;;;;;;;5.55;2.03;;;13.60;99.90;;;;;;5091161;28;20043;-68
2023/05/14 06:32:03;;;;;;;6.25;2.03;;;13.70;99.90;;;;;;5110036;28;20039;-68
2023/05/14 06:34:30;;;;;;;10.52;2.08;;;13.80;99.90;;;;;;5110391;28;20038;-69
2023/05/14 06:36:56;;;;;;;6.10;1.63;;;13.80;99.90;;;;;;5074725;28;20067;-68
2023/05/14 06:39:23;;;;;;;5.97;1.70;;;13.90;99.90;;;;;;5109384;28;20043;-68
2023/05/14 06:41:49;;;;;;;6.20;2.03;;;14.00;99.90;;;;;;5109310;28;20043;-69
2023/05/14 06:44:18;;;;;;;5.47;2.67;;;13.90;99.90;;;;;;5109544;28;20468;-68
2023/05/14 06:46:44;;;;;;;2.90;1.33;;;14.00;99.90;;;;;;5092169;28;20078;-69
2023/05/14 06:49:10;;;;;;;3.80;2.05;;;14.10;99.90;;;;;;5091727;28;20098;-69
2023/05/14 06:51:37;;;;;;;5.25;2.20;;;14.20;99.90;;;;;;5090937;28;20044;-68
2023/05/14 06:54:03;;;;;;;4.57;2.15;;;14.30;99.90;;;;;;5091948;28;20397;-67
2023/05/14 06:56:29;;;;;;;3.78;1.80;;;14.40;99.90;;;;;;5109840;28;20042;-69
2023/05/14 06:58:55;;;;;;;5.35;1.80;;;14.40;99.90;;;;;;5090745;28;20027;-68
2023/05/14 07:01:21;;;;;;;3.05;1.67;;;14.50;99.90;;;;;;5091861;28;20101;-68
2023/05/14 07:03:46;;;;;;;3.83;1.67;;;14.60;99.90;;;;;;5091087;28;20511;-68
2023/05/14 07:06:12;;;;;;;3.08;1.75;;;14.60;99.90;;;;;;5109566;28;20035;-68
2023/05/14 07:08:39;;;;;;;6.20;2.05;;;14.60;99.90;;;;;;5065604;28;20039;-68
2023/05/14 07:11:04;;;;;;;3.22;2.10;;;14.60;99.90;;;;;;5091338;28;20035;-68
2023/05/14 07:13:30;;;;;;;3.97;2.15;;;14.70;99.90;;;;;;5110031;28;20439;-67
2023/05/14 07:15:56;;;;;;;3.08;1.85;;;14.80;99.90;;;;;;5093100;28;20810;-68
2023/05/14 07:18:22;;;;;;;6.65;1.90;;;15.10;99.90;;;;;;5070759;28;20105;-68
2023/05/14 07:20:48;;;;;;;2.47;1.50;;;15.40;99.90;;;;;;5071382;28;20040;-68
2023/05/14 07:23:14;;;;;;;2.95;2.03;;;15.60;99.90;;;;;;5089446;28;20055;-67
2023/05/14 07:25:40;;;;;;;2.53;1.10;;;15.80;99.90;;;;;;5064278;28;20491;-68
2023/05/14 07:28:06;;;;;;;4.53;1.70;;;15.90;99.90;;;;;;5109836;28;20036;-68
2023/05/14 07:30:32;;;;;;;2.58;1.63;;;16.20;99.90;;;;;;5089952;28;20589;-68
2023/05/14 07:32:57;;;;;;;3.33;2.08;;;16.40;99.90;;;;;;5070762;28;20040;-66
2023/05/14 07:35:23;;;;;;;2.22;1.20;;;16.60;99.90;;;;;;5094396;28;20036;-67
2023/05/14 07:37:50;;;;;;;5.75;1.50;;;16.70;99.90;;;;;;5074955;28;20044;-67
2023/05/14 07:40:16;;;;;;;2.08;1.63;;;16.70;99.90;;;;;;5092555;28;20039;-67
2023/05/14 07:42:42;;;;;;;3.00;1.48;;;16.80;99.90;;;;;;5074876;28;20044;-68
2023/05/14 07:45:08;;;;;;;4.32;1.55;;;16.80;99.90;;;;;;5058110;28;20426;-68
2023/05/14 07:47:34;;;;;;;2.10;1.30;;;16.90;99.90;;;;;;5074171;28;20097;-68
2023/05/14 07:50:00;;;;;;;4.22;2.08;;;17.00;99.90;;;;;;5074354;28;20052;-66
2023/05/14 07:52:26;;;;;;;5.10;1.70;;;17.20;99.90;;;;;;5074812;28;20043;-69
2023/05/14 07:54:52;;;;;;;2.72;2.03;;;17.10;99.90;;;;;;5074192;28;20383;-67
2023/05/14 07:57:18;;;;;;;3.13;1.88;;;17.10;99.90;;;;;;5092800;28;20067;-68
2023/05/14 07:59:44;;;;;;;2.28;1.55;;;17.10;99.90;;;;;;5074096;28;20044;-67
2023/05/14 08:02:11;;;;;;;5.45;2.13;;;17.20;99.90;;;;;;5102582;28;20035;-67
2023/05/14 08:04:38;;;;;;;2.40;1.63;;;17.50;99.90;;;;;;5112173;28;20043;-68
2023/05/14 08:07:04;;;;;;;3.15;1.80;;;17.80;99.90;;;;;;5094164;28;20556;-67
2023/05/14 08:09:30;;;;;;;2.22;1.67;;;18.00;99.90;;;;;;5094605;28;20039;-66
2023/05/14 08:11:56;;;;;;;4.18;1.83;;;18.10;99.90;;;;;;5094316;28;20040;-67
2023/05/14 08:14:22;;;;;;;4.00;1.35;;;18.20;99.90;;;;;;5077022;28;20042;-67
2023/05/14 08:16:48;;;;;;;2.38;1.63;;;18.30;99.90;;;;;;5094751;28;20114;-66
2023/05/14 08:19:14;;;;;;;2.45;1.63;;;18.40;99.90;;;;;;5077330;28;20123;-65
2023/05/14 08:21:40;;;;;;;3.00;1.63;;;18.70;99.90;;;;;;5093669;28;20053;-65
2023/05/14 08:24:06;;;;;;;5.82;1.98;;;19.00;99.90;;;;;;5093456;28;20126;-65
2023/05/14 08:26:32;;;;;;;5.28;1.73;;;19.20;99.90;;;;;;5112236;28;20042;-66
2023/05/14 08:28:58;;;;;;;6.50;1.98;;;19.20;99.90;;;;;;5093340;28;20402;-66
2023/05/14 08:31:24;;;;;;;2.58;1.48;;;19.00;99.90;;;;;;5111913;28;20053;-65
2023/05/14 08:33:50;;;;;;;3.28;2.10;;;18.80;99.90;;;;;;5112490;28;20120;-64
2023/05/14 08:36:16;;;;;;;5.72;1.95;;;18.70;99.90;;;;;;5093562;28;20127;-66
2023/05/14 08:38:43;;;;;;;3.25;1.58;;;18.80;99.90;;;;;;5094086;28;20035;-63
2023/05/14 08:41:10;;;;;;;5.97;1.90;;;19.00;99.90;;;;;;5112249;28;20035;-64
2023/05/14 08:43:58;;;;;;;2.55;1.73;;;19.20;99.90;;;;;;5093415;28;20043;-65
2023/05/14 08:46:25;;;;;;;2.80;1.70;;;19.30;99.90;;;;;;5092904;28;20039;-65
2023/05/14 08:48:59;;;;;;;5.93;1.70;;;19.50;99.90;;;;;;5089824;28;20052;-64
2023/05/14 08:51:26;;;;;;;6.45;2.25;;;19.60;99.90;;;;;;5091764;28;20072;-65
2023/05/14 08:53:52;;;;;;;3.88;1.80;;;19.70;99.90;;;;;;5090349;28;20115;-65
2023/05/14 08:56:18;;;;;;;3.05;2.15;;;19.70;99.90;;;;;;5089599;28;20100;-65
2023/05/14 08:58:44;;;;;;;6.53;2.03;;;19.80;99.90;;;;;;5090074;28;20127;-65
2023/05/14 09:01:10;;;;;;;3.28;1.92;;;19.80;99.90;;;;;;5091524;28;20036;-64
2023/05/14 09:03:36;;;;;;;2.22;1.40;;;19.70;99.90;;;;;;5090781;28;20093;-64
2023/05/14 09:06:04;;;;;;;3.90;2.33;;;19.50;99.90;;;;;;5091668;28;20032;-64
2023/05/14 09:08:30;;;;;;;4.13;1.52;;;19.30;99.90;;;;;;5090491;28;20093;-65
2023/05/14 09:10:56;;;;;;;3.08;1.77;;;19.20;99.90;;;;;;5090392;28;20119;-65
2023/05/14 09:13:22;;;;;;;4.30;1.10;;;19.40;99.90;;;;;;5091288;28;20047;-64
2023/05/14 09:15:50;;;;;;;3.28;1.45;;;19.70;99.90;;;;;;5090403;28;20094;-64
2023/05/14 09:18:16;;;;;;;1.92;1.55;;;20.00;99.90;;;;;;5089239;28;20173;-64
2023/05/14 09:20:42;;;;;;;4.03;1.88;;;20.30;99.90;;;;;;5089815;28;20542;-64
2023/05/14 09:23:08;;;;;;;4.05;2.28;;;20.40;99.90;;;;;;5089724;28;20126;-64
2023/05/14 09:25:33;;;;;;;1.95;1.30;;;20.50;99.90;;;;;;5089222;28;20040;-64
2023/05/14 09:28:05;;;;;;;3.33;1.85;;;20.60;99.90;;;;;;5090774;28;20043;-65
2023/05/14 09:30:33;;;;;;;2.35;1.70;;;20.90;99.90;;;;;;5089567;28;20039;-64
2023/05/14 09:32:59;;;;;;;2.78;1.55;;;21.10;99.90;;;;;;5090906;28;20044;-64
2023/05/14 09:35:25;;;;;;;2.90;1.90;;;21.50;99.90;;;;;;5072689;28;20480;-65
2023/05/14 09:37:53;;;;;;;2.88;1.42;;;21.70;99.90;;;;;;5089220;28;20134;-64
2023/05/14 09:40:20;;;;;;;2.92;1.83;;;22.00;99.90;;;;;;5072455;28;20036;-64
2023/05/14 09:42:47;;;;;;;3.13;1.50;;;22.20;99.90;;;;;;5089270;28;20040;-64
2023/05/14 09:45:14;;;;;;;2.17;1.55;;;22.20;99.90;;;;;;5088894;28;20126;-64
2023/05/14 09:47:40;;;;;;;3.28;2.03;;;22.30;99.90;;;;;;5089303;28;20047;-65
2023/05/14 09:50:07;;;;;;;3.75;1.67;;;22.30;99.90;;;;;;5109974;28;20051;-64
2023/05/14 09:52:33;;;;;;;2.30;1.30;;;22.60;99.90;;;;;;5091979;28;20043;-64
2023/05/14 09:54:59;;;;;;;2.67;1.58;;;22.90;99.90;;;;;;5092606;28;20100;-64
2023/05/14 09:57:26;;;;;;;4.00;1.80;;;23.20;99.90;;;;;;5110604;28;20107;-64
2023/05/14 09:59:52;;;;;;;4.38;1.70;;;23.30;99.90;;;;;;5075069;28;20438;-65
2023/05/14 10:02:24;;;;;;;3.70;1.70;;;23.30;99.90;;;;;;5092389;28;20036;-64
2023/05/14 10:04:53;;;;;;;4.00;1.40;;;23.40;99.90;;;;;;5110552;28;20047;-64
2023/05/14 10:07:25;;;;;;;5.38;1.60;;;23.30;99.90;;;;;;5110074;28;20054;-65
2023/05/14 10:09:58;;;;;;;3.45;1.30;;;23.00;99.90;;;;;;5110650;28;20119;-65
2023/05/14 10:12:27;;;;;;;2.80;1.40;;;22.80;99.90;;;;;;5092205;28;20078;-65
2023/05/14 10:14:56;;;;;;;3.05;1.67;;;22.90;99.90;;;;;;5091697;28;20071;-65
2023/05/14 10:17:25;;;;;;;;;;;23.30;99.90;;;;;;5093095;28;20042;-66
2023/05/14 10:19:53;;;;;;;;;;;23.50;99.90;;;;;;5092029;28;19964;-65
2023/05/14 10:22:23;;;;;;;2.25;1.40;;;23.70;99.90;;;;;;5110315;28;19916;-65
2023/05/14 10:24:51;;;;;;;2.10;1.40;;;23.60;99.90;;;;;;5091839;28;20043;-65
2023/05/14 10:27:21;;;;;;;2.50;1.42;;;23.60;99.90;;;;;;5109624;28;20616;-65
2023/05/14 10:29:54;;;;;;;2.38;1.58;;;23.70;99.90;;;;;;5092038;28;20050;-65
2023/05/14 10:32:23;;;;;;;6.10;2.03;;;23.80;99.90;;;;;;5110212;28;20043;-65
2023/05/14 10:34:50;;;;;;;2.55;1.50;;;23.80;99.90;;;;;;5091752;28;20031;-64
2023/05/14 10:37:17;;;;;;;2.75;1.70;;;23.70;99.90;;;;;;5092431;28;20127;-65
2023/05/14 10:39:47;;;;;;;2.65;1.80;;;23.60;99.90;;;;;;5091794;28;20035;-66
2023/05/14 10:42:35;;;;;;;2.88;1.45;;;23.50;99.90;;;;;;5109565;28;20035;-64
2023/05/14 10:45:08;;;;;;;2.47;1.38;;;23.30;99.90;;;;;;5110533;28;20070;-65
2023/05/14 10:47:45;;;;;;;4.35;1.60;;;23.30;99.90;;;;;;5109835;28;20031;-64
2023/05/14 10:50:13;;;;;;;1.75;1.13;;;23.60;99.90;;;;;;5074772;28;20512;-66
2023/05/14 10:52:45;;;;;;;4.47;1.55;;;23.90;99.90;;;;;;5091682;28;20044;-65
2023/05/14 10:55:15;;;;;;;4.85;1.30;;;24.00;99.90;;;;;;5109634;28;20034;-65
2023/05/14 10:57:44;;;;;;;3.50;2.15;;;24.10;99.90;;;;;;5091648;28;20096;-65
2023/05/14 11:00:11;;;;;;;3.42;1.60;;;24.20;99.90;;;;;;5109775;28;20040;-64
2023/05/14 11:02:38;;;;;;;3.75;1.75;;;24.10;99.90;;;;;;5109041;28;20043;-65
2023/05/14 11:05:10;;;;;;;3.50;1.52;;;24.10;99.90;;;;;;5091842;28;20403;-65
2023/05/14 11:07:49;;;;;;;4.70;1.73;;;24.00;99.90;;;;;;5075163;28;20046;-65
2023/05/14 11:10:17;;;;;;;4.45;1.42;;;24.00;99.90;;;;;;5095411;28;20035;-65
2023/05/14 11:12:44;;;;;;;2.08;1.10;;;24.00;99.90;;;;;;5113699;28;20044;-65
2023/05/14 11:15:16;;;;;;;1.83;1.50;;;24.20;99.90;;;;;;5113679;28;20507;-64
2023/05/14 11:17:43;;;;;;;5.93;1.98;;;24.40;99.90;;;;;;5095460;28;20036;-65
2023/05/14 11:20:10;;;;;;;2.33;1.25;;;24.60;99.90;;;;;;5095472;28;20047;-64
2023/05/14 11:22:37;;;;;;;2.92;1.30;;;24.70;99.90;;;;;;5112066;28;20553;-65
2023/05/14 11:25:05;;;;;;;2.95;1.90;;;24.60;99.90;;;;;;5112990;28;20035;-64
2023/05/14 11:27:33;;;;;;;3.78;1.88;;;24.40;99.90;;;;;;5113174;28;20043;-65
2023/05/14 11:29:59;;;;;;;2.88;1.63;;;24.20;99.90;;;;;;5094815;28;20126;-64
2023/05/14 11:32:25;;;;;;;2.25;1.42;;;24.00;99.90;;;;;;5077570;28;20138;-64
2023/05/14 11:34:51;;;;;;;2.85;1.50;;;23.80;99.90;;;;;;5078544;28;20039;-65
2023/05/14 11:37:18;;;;;;;5.35;1.77;;;23.90;99.90;;;;;;5112756;28;20415;-65
2023/05/14 11:39:52;;;;;;;2.53;1.63;;;23.90;99.90;;;;;;5113756;28;20039;-65
2023/05/14 11:42:19;;;;;;;2.22;1.30;;;23.90;99.90;;;;;;5095011;28;20039;-65
2023/05/14 11:44:50;;;;;;;3.30;1.58;;;23.90;99.90;;;;;;5112935;28;20082;-64
2023/05/14 11:47:17;;;;;;;6.00;1.65;;;24.00;99.90;;;;;;5094846;28;20051;-64
2023/05/14 11:49:44;;;;;;;5.28;2.03;;;24.20;99.90;;;;;;5113070;28;20083;-64
2023/05/14 11:52:13;;;;;;;3.85;1.92;;;24.30;99.90;;;;;;5094262;28;20050;-65
2023/05/14 11:54:40;;;;;;;3.05;1.55;;;24.30;99.90;;;;;;5095084;28;20032;-64
2023/05/14 11:57:11;;;;;;;3.83;1.52;;;24.20;99.90;;;;;;5095074;28;20130;-63
2023/05/14 11:59:37;;;;;;;1.98;1.30;;;24.20;99.90;;;;;;5094040;28;20101;-65
2023/05/14 12:02:04;;;;;;;4.00;1.40;;;24.10;99.90;;;;;;5090277;28;20035;-65
2023/05/14 12:04:30;;;;;;;4.03;1.25;;;24.00;99.90;;;;;;5113060;28;20420;-65
2023/05/14 12:06:59;;;;;;;4.68;1.58;;;24.10;99.90;;;;;;5099773;28;20101;-65
2023/05/14 12:09:25;;;;;;;1.88;1.08;;;24.00;99.90;;;;;;5074575;28;20048;-64
2023/05/14 12:11:51;;;;;;;3.67;1.65;;;24.00;99.90;;;;;;5077435;28;20450;-65
2023/05/14 12:14:22;;;;;;;2.47;1.35;;;24.10;99.90;;;;;;5094630;28;20505;-65
2023/05/14 12:16:49;;;;;;;3.35;1.17;;;24.10;99.90;;;;;;5080513;28;20031;-64
2023/05/14 12:19:16;;;;;;;2.60;1.65;;;24.10;99.90;;;;;;5072740;28;20079;-64
2023/05/14 12:21:43;;;;;;;1.65;1.20;;;24.20;99.90;;;;;;5075674;28;20392;-65
2023/05/14 12:24:16;;;;;;;3.28;1.23;;;24.30;99.90;;;;;;5091986;28;20115;-64
2023/05/14 12:26:50;;;;;;;3.55;1.38;;;24.30;99.00;;;;;;5072366;28;20493;-64
2023/05/14 12:29:16;;;;;;;1.73;1.20;;;24.40;98.30;;;;;;5074729;28;20122;-64
2023/05/14 12:31:47;;;;;;;1.98;1.63;;;24.40;99.70;;;;;;5073489;28;20471;-64
2023/05/14 12:34:13;;;;;;;3.53;1.40;;;24.40;99.30;;;;;;5090572;28;20036;-64
2023/05/14 12:36:39;;;;;;;2.10;1.33;;;24.40;99.30;;;;;;5059896;28;20043;-64
2023/05/14 12:39:04;;;;;;;1.58;1.00;;;24.30;98.90;;;;;;5093191;28;20044;-64
2023/05/14 12:41:31;;;;;;;2.22;0.82;;;24.10;98.00;;;;;;5110884;28;20499;-65
2023/05/14 12:43:57;;;;;;;1.95;1.13;;;24.10;98.00;;;;;;5085604;28;20484;-64
2023/05/14 12:46:25;;;;;;;1.75;1.15;;;24.10;95.50;;;;;;5090926;28;20043;-65
2023/05/14 12:48:51;;;;;;;3.28;1.10;;;24.00;95.80;;;;;;5090025;28;20087;-64
2023/05/14 12:51:17;;;;;;;3.88;1.30;;;23.70;95.20;;;;;;5072514;28;20040;-64